createdAt,value
2022-09-10T05:05:04.428Z,2.9
2022-09-10T05:07:19.742Z,3.9
2022-09-10T05:09:34.139Z,3.9
2022-09-10T05:11:48.478Z,4.3
2022-09-10T05:14:02.930Z,3.8
2022-09-10T05:16:17.356Z,3.8
2022-09-10T05:18:31.759Z,3.5
2022-09-10T05:20:46.130Z,3.5
2022-09-10T05:23:00.599Z,4
2022-09-10T05:25:15.020Z,3.7
2022-09-10T05:27:29.349Z,3.7
2022-09-10T05:29:43.696Z,3.7
2022-09-10T05:31:58.182Z,3.8
2022-09-10T05:34:12.471Z,3.6
2022-09-10T05:36:27.560Z,4
2022-09-10T05:38:42.042Z,4.1
2022-09-10T05:40:56.425Z,4.4
2022-09-10T05:43:10.841Z,3.8
2022-09-10T05:45:25.360Z,4
2022-09-10T05:47:39.678Z,3.7
2022-09-10T05:49:54.102Z,3.7
2022-09-10T05:52:08.477Z,4
2022-09-10T05:54:22.876Z,4.3
2022-09-10T05:56:37.175Z,3.8
2022-09-10T05:58:51.642Z,4.1
2022-09-10T06:01:06.003Z,3.6
2022-09-10T06:03:20.421Z,4.1
2022-09-10T06:05:36.834Z,3.8
2022-09-10T06:07:51.200Z,3.8
2022-09-10T06:10:05.667Z,3.5
2022-09-10T06:12:20.346Z,3.6
2022-09-10T06:14:34.585Z,3.8
2022-09-10T06:16:49.020Z,3.8
2022-09-10T06:19:03.699Z,3.6
2022-09-10T06:21:18.080Z,3.5
2022-09-10T06:23:32.496Z,3.2
2022-09-10T06:25:46.869Z,3.4
2022-09-10T06:28:02.137Z,3.1
2022-09-10T06:30:16.623Z,3.7
2022-09-10T06:32:30.990Z,3.6
2022-09-10T06:34:45.407Z,3.5
2022-09-10T06:36:59.806Z,3.8
2022-09-10T06:39:14.169Z,3.5
2022-09-10T06:41:28.482Z,3.4
2022-09-10T06:43:42.860Z,3.5
2022-09-10T06:45:57.292Z,3.2
2022-09-10T06:50:28.880Z,3.5
2022-09-10T06:52:43.205Z,3.3
2022-09-10T06:54:57.584Z,4.2
2022-09-10T06:57:11.910Z,3.9
2022-09-10T06:59:26.253Z,4.1
2022-09-10T07:01:41.703Z,4.2
2022-09-10T07:03:55.977Z,3.9
2022-09-10T07:06:10.420Z,3.7
2022-09-10T07:08:24.733Z,4.3
2022-09-10T07:10:39.103Z,4.3
2022-09-10T07:12:53.431Z,4.6
2022-09-10T07:15:07.754Z,4.5
2022-09-10T07:17:22.105Z,4.2
2022-09-10T07:19:36.434Z,4.5
2022-09-10T07:21:50.790Z,4.4
2022-09-10T07:24:05.110Z,4.5
2022-09-10T07:26:19.468Z,4.9
2022-09-10T07:28:33.869Z,4.8
2022-09-10T07:30:49.278Z,5
2022-09-10T07:33:03.631Z,5.5
2022-09-10T07:35:17.956Z,5.1
2022-09-10T07:37:32.351Z,4.9
2022-09-10T07:39:46.742Z,5.9
2022-09-10T07:42:01.124Z,5.4
2022-09-10T07:44:16.145Z,6
2022-09-10T07:46:31.485Z,5.9
2022-09-10T07:48:45.815Z,6.2
2022-09-10T07:51:00.201Z,6.4
2022-09-10T07:53:14.529Z,6.5
2022-09-10T07:55:28.881Z,6.8
2022-09-10T07:57:43.251Z,6.6
2022-09-10T07:59:57.702Z,6.7
2022-09-10T08:02:12.141Z,7.5
2022-09-10T08:04:26.439Z,7.2
2022-09-10T08:06:40.799Z,6.8
2022-09-10T08:08:56.138Z,7.6
2022-09-10T08:11:12.474Z,7.3
2022-09-10T08:13:26.834Z,7.4
2022-09-10T08:15:41.196Z,7.9
2022-09-10T08:17:55.505Z,8.2
2022-09-10T08:20:09.859Z,7.7
2022-09-10T08:22:24.210Z,7.8
2022-09-10T08:24:38.582Z,7.5
2022-09-10T08:26:52.953Z,8.5
2022-09-10T08:29:07.391Z,8.4
2022-09-10T08:31:21.847Z,8.4
2022-09-10T08:33:36.174Z,8.4
2022-09-10T08:35:50.533Z,8
2022-09-10T08:38:04.902Z,8.3
2022-09-10T08:40:19.248Z,8.2
2022-09-10T08:42:33.635Z,8.3
2022-09-10T08:44:47.980Z,8
2022-09-10T08:47:02.325Z,8.2
2022-09-10T08:49:16.646Z,8
2022-09-10T08:51:30.989Z,8.9
2022-09-10T08:53:45.323Z,7.8
2022-09-10T08:55:59.737Z,9.6
2022-09-10T08:58:14.085Z,9.6
2022-09-10T09:00:29.495Z,9.4
2022-09-10T09:02:49.077Z,9.6
2022-09-10T09:05:01.162Z,9
2022-09-10T09:07:15.495Z,9.5
2022-09-10T09:09:29.837Z,9.7
2022-09-10T09:11:44.184Z,36.900002
2022-09-10T09:13:58.512Z,29.1
2022-09-10T09:16:12.964Z,12.3
2022-09-10T09:18:27.189Z,16.200001
2022-09-10T09:20:41.547Z,11.7
2022-09-10T09:22:55.871Z,10.5
2022-09-10T09:25:10.237Z,12
2022-09-10T09:27:24.572Z,11.1
2022-09-10T09:29:38.888Z,11.3
2022-09-10T09:31:53.315Z,10.6
2022-09-10T09:34:07.635Z,10.2
2022-09-10T09:36:22.114Z,9.9
2022-09-10T09:38:36.466Z,10.2
2022-09-10T09:40:50.790Z,10.1
2022-09-10T09:43:05.229Z,9.6
2022-09-10T09:45:19.537Z,10.3
2022-09-10T09:47:33.900Z,9.9
2022-09-10T09:49:50.183Z,8.5
2022-09-10T09:52:04.532Z,10.3
2022-09-10T09:54:46.951Z,9.6
2022-09-10T09:56:36.234Z,10.2
2022-09-10T09:58:51.202Z,10.2
2022-09-10T10:01:05.692Z,9.9
2022-09-10T10:03:19.990Z,10
2022-09-10T10:05:34.344Z,9.1
2022-09-10T10:07:48.725Z,9.6
2022-09-10T10:10:03.143Z,10.8
2022-09-10T10:12:17.519Z,10.1
2022-09-10T10:14:31.943Z,9.1
2022-09-10T10:16:46.307Z,9.5
2022-09-10T10:19:00.721Z,9.4
2022-09-10T10:21:15.102Z,9.4
2022-09-10T10:23:31.393Z,9.8
2022-09-10T10:25:45.724Z,10.6
2022-09-10T10:28:00.043Z,10
2022-09-10T10:30:14.398Z,9.9
2022-09-10T10:32:28.830Z,9.6
2022-09-10T10:34:44.179Z,9.1
2022-09-10T10:36:58.554Z,9.2
2022-09-10T10:39:12.874Z,9.1
2022-09-10T10:41:27.222Z,9.2
2022-09-10T10:43:41.577Z,10
2022-09-10T10:45:56.133Z,10.1
2022-09-10T10:48:10.517Z,9
2022-09-10T10:50:24.909Z,9.1
2022-09-10T10:52:39.241Z,10.1
2022-09-10T10:54:54.599Z,11.2
2022-09-10T10:57:08.984Z,11
2022-09-10T10:59:23.357Z,10.8
2022-09-10T11:01:37.775Z,9.7
2022-09-10T11:03:52.151Z,10.7
2022-09-10T11:06:06.529Z,10.5
2022-09-10T11:08:20.961Z,10.5
2022-09-10T11:10:35.349Z,10.1
2022-09-10T11:12:49.723Z,10.4
2022-09-10T11:15:04.181Z,10.5
2022-09-10T11:17:18.571Z,10.2
2022-09-10T11:19:32.947Z,10.9
2022-09-10T11:21:47.347Z,11.5
2022-09-10T11:24:02.746Z,11
2022-09-10T11:26:17.138Z,10.6
2022-09-10T11:28:31.543Z,11.7
2022-09-10T11:30:45.858Z,11.9
2022-09-10T11:33:01.195Z,11.5
2022-09-10T11:35:16.621Z,11.9
2022-09-10T11:37:31.148Z,12.1
2022-09-10T11:39:45.521Z,12.8
2022-09-10T11:41:59.870Z,12.2
2022-09-10T11:44:14.256Z,12.3
2022-09-10T11:46:28.843Z,12
2022-09-10T11:48:43.216Z,11.5
2022-09-10T11:50:57.597Z,10.3
2022-09-10T11:53:12.002Z,11.3
2022-09-10T11:55:27.378Z,12.6
2022-09-10T11:57:41.836Z,9.3
2022-09-10T11:59:56.210Z,12.3
2022-09-10T12:02:10.718Z,9
2022-09-10T12:04:25.047Z,10.7
2022-09-10T12:06:39.858Z,11.7
2022-09-10T12:08:54.329Z,10.9
2022-09-10T12:11:08.714Z,10.2
2022-09-10T12:13:23.172Z,10.4
2022-09-10T12:15:38.547Z,10.8
2022-09-10T12:17:52.881Z,10.4
2022-09-10T12:20:07.279Z,10.8
2022-09-10T12:22:21.636Z,11.1
2022-09-10T12:24:36.082Z,10.7
2022-09-10T12:26:50.435Z,10
2022-09-10T12:29:04.840Z,10.2
2022-09-10T12:31:19.286Z,9.8
2022-09-10T12:33:33.723Z,11.2
2022-09-10T12:35:48.087Z,10.9
2022-09-10T12:38:02.495Z,10.7
2022-09-10T12:40:17.941Z,11.5
2022-09-10T12:42:32.290Z,11.2
2022-09-10T12:44:46.662Z,10.7
2022-09-10T12:47:01.037Z,11.2
2022-09-10T12:49:15.410Z,12.3
2022-09-10T12:51:29.774Z,12.1
2022-09-10T12:53:44.196Z,12.7
2022-09-10T12:55:58.619Z,12.1
2022-09-10T12:58:12.976Z,11.7
2022-09-10T13:00:27.339Z,11.8
2022-09-10T13:02:42.803Z,11.8
2022-09-10T13:04:57.259Z,11.4
2022-09-10T13:07:11.612Z,12
2022-09-10T13:09:25.986Z,12.5
2022-09-10T13:11:40.360Z,12.8
2022-09-10T13:13:54.742Z,12.8
2022-09-10T13:16:09.264Z,13.3
2022-09-10T13:18:23.629Z,11.6
2022-09-10T13:20:37.974Z,12.3
2022-09-10T13:22:52.807Z,11.8
